Chronik & Geschichte

Boeing Stearman am Flugplatz Konstanz

Mit seiner 107-jährigen Geschichte ist Konstanz der älteste Verkehrslandeplatz Deutschlands. Lesen Sie unsere Festschrift zum 100-jährigen Platzjubiläum oder entdecken Sie die ausführliche Flugplatzchronik auf der Website der Initiative PRO Flugplatz Konstanz.

Live am Platz

Die Bilder unserer Webcams werden alle 5 Minuten aktualisiert.

Sonnenaufgang:

05:03 UTC / 07:03 Lokal

Sonnenuntergang:

17:31 UTC / 19:31 Lokal

METAR (18.09.2021 04:50 UTC):

EDNY 180450Z AUTO 03005KT 9999 // BKN043/// 10/09 Q1016
VFR

TAF (17.09.2021 23:00 UTC):

TAF EDNY 172300Z 1800/1824 03005KT 9999 FEW040 PROB30 TEMPO 1804/1808 BKN009

Alle Angaben unverbindlich und ohne Gewähr. Zeiten genähert.

Für den Verkehrslandeplatz Konstanz werden keine offiziellen Wetterinformationen ausgegeben. Daher werden zur Orientierung Daten des nahegelegenen Flughafens Friedrichshafen dargestellt.

Das Landeentgelt kann bei uns auch mit aerops bezahlt werden. Die App für's Handy ist kostenfrei erhältlich.